sensor_id;sensor_type;location;lat;lon;timestamp;temperature;humidity
18777;DHT22;9517;51.174;4.160;2022-11-14T01:41:43;4.70;99.90
18777;DHT22;9517;51.174;4.160;2022-11-14T01:48:30;5.00;99.90
18777;DHT22;9517;51.174;4.160;2022-11-14T01:51:31;4.90;99.90
18777;DHT22;9517;51.174;4.160;2022-11-14T01:54:19;4.80;99.90
18777;DHT22;9517;51.174;4.160;2022-11-14T01:57:26;4.90;99.90
18777;DHT22;9517;51.174;4.160;2022-11-14T02:00:18;4.90;99.90
18777;DHT22;9517;51.174;4.160;2022-11-14T02:03:37;5.00;99.90
18777;DHT22;9517;51.174;4.160;2022-11-14T02:10:19;4.90;99.90
18777;DHT22;9517;51.174;4.160;2022-11-14T02:13:33;5.00;99.90
18777;DHT22;9517;51.174;4.160;2022-11-14T02:16:33;4.90;99.90
18777;DHT22;9517;51.174;4.160;2022-11-14T02:29:51;4.70;99.90
18777;DHT22;9517;51.174;4.160;2022-11-14T02:32:35;4.70;99.90
18777;DHT22;9517;51.174;4.160;2022-11-14T02:35:31;4.60;99.90
18777;DHT22;9517;51.174;4.160;2022-11-14T02:38:42;4.50;99.90
18777;DHT22;9517;51.174;4.160;2022-11-14T02:41:46;4.60;99.90
18777;DHT22;9517;51.174;4.160;2022-11-14T03:17:35;4.70;99.90
18777;DHT22;9517;51.174;4.160;2022-11-14T03:20:37;4.70;99.90
18777;DHT22;9517;51.174;4.160;2022-11-14T03:23:46;4.70;99.90
18777;DHT22;9517;51.174;4.160;2022-11-14T03:29:53;4.60;99.90
18777;DHT22;9517;51.174;4.160;2022-11-14T03:36:15;4.50;99.90
18777;DHT22;9517;51.174;4.160;2022-11-14T03:42:24;4.40;99.90
18777;DHT22;9517;51.174;4.160;2022-11-14T03:45:29;4.40;99.90
18777;DHT22;9517;51.174;4.160;2022-11-14T03:48:14;4.40;99.90
18777;DHT22;9517;51.174;4.160;2022-11-14T03:51:03;4.30;99.90
18777;DHT22;9517;51.174;4.160;2022-11-14T03:54:08;4.30;99.90
18777;DHT22;9517;51.174;4.160;2022-11-14T03:56:52;4.20;99.90
18777;DHT22;9517;51.174;4.160;2022-11-14T03:59:45;4.10;99.90
18777;DHT22;9517;51.174;4.160;2022-11-14T04:02:37;4.10;99.90
18777;DHT22;9517;51.174;4.160;2022-11-14T04:05:39;4.10;99.90
18777;DHT22;9517;51.174;4.160;2022-11-14T04:15:52;4.10;99.90
18777;DHT22;9517;51.174;4.160;2022-11-14T04:18:41;4.20;99.90
18777;DHT22;9517;51.174;4.160;2022-11-14T04:21:41;4.10;99.90
18777;DHT22;9517;51.174;4.160;2022-11-14T04:24:32;4.20;99.90
18777;DHT22;9517;51.174;4.160;2022-11-14T04:27:33;4.20;99.90
18777;DHT22;9517;51.174;4.160;2022-11-14T04:30:21;4.10;99.90
18777;DHT22;9517;51.174;4.160;2022-11-14T04:46:21;4.10;99.90
18777;DHT22;9517;51.174;4.160;2022-11-14T04:49:27;4.00;99.90
18777;DHT22;9517;51.174;4.160;2022-11-14T04:52:15;4.10;99.90
18777;DHT22;9517;51.174;4.160;2022-11-14T04:55:19;4.10;99.90
18777;DHT22;9517;51.174;4.160;2022-11-14T04:58:46;4.10;99.90
18777;DHT22;9517;51.174;4.160;2022-11-14T05:08:28;4.20;99.90
18777;DHT22;9517;51.174;4.160;2022-11-14T05:14:44;4.20;99.90
18777;DHT22;9517;51.174;4.160;2022-11-14T05:17:50;4.20;99.90
18777;DHT22;9517;51.174;4.160;2022-11-14T05:20:18;4.20;99.90
18777;DHT22;9517;51.174;4.160;2022-11-14T05:23:18;4.20;99.90
18777;DHT22;9517;51.174;4.160;2022-11-14T05:26:13;4.20;99.90
18777;DHT22;9517;51.174;4.160;2022-11-14T05:28:56;4.20;99.90
18777;DHT22;9517;51.174;4.160;2022-11-14T05:31:39;4.20;99.90
18777;DHT22;9517;51.174;4.160;2022-11-14T05:34:51;4.20;99.90
18777;DHT22;9517;51.174;4.160;2022-11-14T05:37:37;4.30;99.90
18777;DHT22;9517;51.174;4.160;2022-11-14T06:10:40;4.80;99.90
18777;DHT22;9517;51.174;4.160;2022-11-14T06:13:23;4.70;99.90
18777;DHT22;9517;51.174;4.160;2022-11-14T06:19:28;4.90;99.90
18777;DHT22;9517;51.174;4.160;2022-11-14T06:21:55;4.90;99.90
18777;DHT22;9517;51.174;4.160;2022-11-14T06:24:29;5.00;99.90
18777;DHT22;9517;51.174;4.160;2022-11-14T06:27:00;5.00;99.90
18777;DHT22;9517;51.174;4.160;2022-11-14T06:29:30;5.00;99.90
18777;DHT22;9517;51.174;4.160;2022-11-14T06:31:57;5.10;99.90
18777;DHT22;9517;51.174;4.160;2022-11-14T06:34:34;5.00;99.90
18777;DHT22;9517;51.174;4.160;2022-11-14T06:37:01;5.00;99.90
18777;DHT22;9517;51.174;4.160;2022-11-14T06:43:08;4.90;99.90
18777;DHT22;9517;51.174;4.160;2022-11-14T06:45:35;4.90;99.90
18777;DHT22;9517;51.174;4.160;2022-11-14T06:48:02;4.90;99.90
18777;DHT22;9517;51.174;4.160;2022-11-14T06:50:29;4.90;99.90
18777;DHT22;9517;51.174;4.160;2022-11-14T06:52:58;4.80;99.90
18777;DHT22;9517;51.174;4.160;2022-11-14T07:05:56;4.90;99.90
18777;DHT22;9517;51.174;4.160;2022-11-14T07:08:27;4.90;99.90
18777;DHT22;9517;51.174;4.160;2022-11-14T07:11:00;4.90;99.90
18777;DHT22;9517;51.174;4.160;2022-11-14T07:13:27;4.80;99.90
18777;DHT22;9517;51.174;4.160;2022-11-14T07:15:54;4.70;99.90
18777;DHT22;9517;51.174;4.160;2022-11-14T07:18:21;4.70;99.90
18777;DHT22;9517;51.174;4.160;2022-11-14T07:20:48;4.80;99.90
18777;DHT22;9517;51.174;4.160;2022-11-14T07:23:17;4.80;99.90
18777;DHT22;9517;51.174;4.160;2022-11-14T07:25:44;4.80;99.90
18777;DHT22;9517;51.174;4.160;2022-11-14T07:28:11;4.80;99.90
18777;DHT22;9517;51.174;4.160;2022-11-14T07:30:38;4.90;99.90
18777;DHT22;9517;51.174;4.160;2022-11-14T07:33:05;4.90;99.90
18777;DHT22;9517;51.174;4.160;2022-11-14T07:35:32;4.90;99.90
18777;DHT22;9517;51.174;4.160;2022-11-14T07:38:03;5.00;99.90
18777;DHT22;9517;51.174;4.160;2022-11-14T07:40:31;5.10;99.90
18777;DHT22;9517;51.174;4.160;2022-11-14T07:42:59;5.10;99.90
18777;DHT22;9517;51.174;4.160;2022-11-14T07:45:27;5.20;99.90
18777;DHT22;9517;51.174;4.160;2022-11-14T07:47:55;5.30;99.90
18777;DHT22;9517;51.174;4.160;2022-11-14T07:50:22;5.40;99.90
18777;DHT22;9517;51.174;4.160;2022-11-14T07:52:50;5.40;99.90
18777;DHT22;9517;51.174;4.160;2022-11-14T07:55:17;5.50;99.90
18777;DHT22;9517;51.174;4.160;2022-11-14T07:57:46;5.60;99.90
18777;DHT22;9517;51.174;4.160;2022-11-14T08:00:14;5.70;99.90
18777;DHT22;9517;51.174;4.160;2022-11-14T08:02:41;5.90;99.90
18777;DHT22;9517;51.174;4.160;2022-11-14T08:05:08;6.00;99.90
18777;DHT22;9517;51.174;4.160;2022-11-14T08:07:35;6.00;99.90
18777;DHT22;9517;51.174;4.160;2022-11-14T08:10:03;6.20;99.90
18777;DHT22;9517;51.174;4.160;2022-11-14T08:12:30;6.30;99.90
18777;DHT22;9517;51.174;4.160;2022-11-14T08:14:59;6.30;99.90
18777;DHT22;9517;51.174;4.160;2022-11-14T08:17:26;6.30;99.90
18777;DHT22;9517;51.174;4.160;2022-11-14T08:19:53;6.40;99.90
18777;DHT22;9517;51.174;4.160;2022-11-14T08:22:20;6.50;99.90
18777;DHT22;9517;51.174;4.160;2022-11-14T08:24:47;6.60;99.90
18777;DHT22;9517;51.174;4.160;2022-11-14T08:27:14;6.70;99.90
18777;DHT22;9517;51.174;4.160;2022-11-14T08:29:41;6.70;99.90
18777;DHT22;9517;51.174;4.160;2022-11-14T08:32:09;6.90;99.90
18777;DHT22;9517;51.174;4.160;2022-11-14T08:34:36;6.80;99.90
18777;DHT22;9517;51.174;4.160;2022-11-14T08:37:03;6.90;99.90
18777;DHT22;9517;51.174;4.160;2022-11-14T08:39:31;7.00;99.90
18777;DHT22;9517;51.174;4.160;2022-11-14T08:41:58;7.10;99.90
18777;DHT22;9517;51.174;4.160;2022-11-14T08:44:25;7.20;99.90
18777;DHT22;9517;51.174;4.160;2022-11-14T08:46:52;7.20;99.90
18777;DHT22;9517;51.174;4.160;2022-11-14T08:49:20;7.20;99.90
18777;DHT22;9517;51.174;4.160;2022-11-14T08:51:47;7.40;99.90
18777;DHT22;9517;51.174;4.160;2022-11-14T08:54:17;7.40;99.90
18777;DHT22;9517;51.174;4.160;2022-11-14T08:56:44;7.50;99.90
18777;DHT22;9517;51.174;4.160;2022-11-14T08:59:11;7.70;99.90
18777;DHT22;9517;51.174;4.160;2022-11-14T09:01:38;7.60;99.90
18777;DHT22;9517;51.174;4.160;2022-11-14T09:04:05;7.50;99.90
18777;DHT22;9517;51.174;4.160;2022-11-14T09:06:34;7.60;99.90
18777;DHT22;9517;51.174;4.160;2022-11-14T09:09:01;7.60;99.90
18777;DHT22;9517;51.174;4.160;2022-11-14T09:11:28;7.70;99.90
18777;DHT22;9517;51.174;4.160;2022-11-14T09:13:55;7.60;99.90
18777;DHT22;9517;51.174;4.160;2022-11-14T09:16:23;7.80;99.90
18777;DHT22;9517;51.174;4.160;2022-11-14T09:18:50;7.70;99.90
18777;DHT22;9517;51.174;4.160;2022-11-14T09:21:17;7.80;99.90
18777;DHT22;9517;51.174;4.160;2022-11-14T09:23:47;7.90;99.90
18777;DHT22;9517;51.174;4.160;2022-11-14T09:26:14;7.90;99.90
18777;DHT22;9517;51.174;4.160;2022-11-14T09:28:43;8.00;99.90
18777;DHT22;9517;51.174;4.160;2022-11-14T09:31:11;8.20;99.90
18777;DHT22;9517;51.174;4.160;2022-11-14T09:33:39;8.30;99.90
18777;DHT22;9517;51.174;4.160;2022-11-14T09:36:08;8.40;99.90
18777;DHT22;9517;51.174;4.160;2022-11-14T09:38:36;8.40;99.90
18777;DHT22;9517;51.174;4.160;2022-11-14T09:41:21;8.60;99.90
18777;DHT22;9517;51.174;4.160;2022-11-14T09:44:22;8.90;99.90
18777;DHT22;9517;51.174;4.160;2022-11-14T09:46:56;9.10;99.90
18777;DHT22;9517;51.174;4.160;2022-11-14T09:49:28;9.20;99.90
18777;DHT22;9517;51.174;4.160;2022-11-14T09:52:02;9.50;99.90
18777;DHT22;9517;51.174;4.160;2022-11-14T09:54:41;9.90;99.90
18777;DHT22;9517;51.174;4.160;2022-11-14T09:57:15;10.30;99.90
18777;DHT22;9517;51.174;4.160;2022-11-14T09:59:43;10.80;99.90
18777;DHT22;9517;51.174;4.160;2022-11-14T10:02:32;11.00;99.90
18777;DHT22;9517;51.174;4.160;2022-11-14T10:05:16;11.40;99.90
18777;DHT22;9517;51.174;4.160;2022-11-14T10:07:55;11.50;99.90
18777;DHT22;9517;51.174;4.160;2022-11-14T10:10:36;11.40;99.90
18777;DHT22;9517;51.174;4.160;2022-11-14T10:13:15;11.70;99.90
18777;DHT22;9517;51.174;4.160;2022-11-14T10:15:48;12.10;99.90
18777;DHT22;9517;51.174;4.160;2022-11-14T10:21:17;12.60;99.90
18777;DHT22;9517;51.174;4.160;2022-11-14T10:23:56;12.10;99.90
18777;DHT22;9517;51.174;4.160;2022-11-14T10:26:27;12.20;99.90
18777;DHT22;9517;51.174;4.160;2022-11-14T10:29:17;12.10;99.90
18777;DHT22;9517;51.174;4.160;2022-11-14T10:31:51;12.00;99.90
18777;DHT22;9517;51.174;4.160;2022-11-14T10:34:27;12.40;99.90
18777;DHT22;9517;51.174;4.160;2022-11-14T10:37:02;12.90;99.90
18777;DHT22;9517;51.174;4.160;2022-11-14T10:39:36;12.80;99.90
18777;DHT22;9517;51.174;4.160;2022-11-14T10:42:10;12.90;99.90
18777;DHT22;9517;51.174;4.160;2022-11-14T10:44:44;12.80;99.90
18777;DHT22;9517;51.174;4.160;2022-11-14T10:47:17;13.30;99.90
18777;DHT22;9517;51.174;4.160;2022-11-14T10:49:46;13.90;99.90
18777;DHT22;9517;51.174;4.160;2022-11-14T10:52:18;14.00;99.90
18777;DHT22;9517;51.174;4.160;2022-11-14T10:54:50;14.60;99.90
18777;DHT22;9517;51.174;4.160;2022-11-14T10:57:20;15.60;99.90
18777;DHT22;9517;51.174;4.160;2022-11-14T10:59:54;16.60;99.90
18777;DHT22;9517;51.174;4.160;2022-11-14T11:02:21;17.30;99.90
18777;DHT22;9517;51.174;4.160;2022-11-14T11:04:49;18.00;99.90
18777;DHT22;9517;51.174;4.160;2022-11-14T11:07:21;18.50;99.90
18777;DHT22;9517;51.174;4.160;2022-11-14T11:10:19;18.50;99.90
18777;DHT22;9517;51.174;4.160;2022-11-14T11:13:04;18.60;99.90
18777;DHT22;9517;51.174;4.160;2022-11-14T11:15:38;19.30;99.90
18777;DHT22;9517;51.174;4.160;2022-11-14T11:18:24;20.20;99.90
18777;DHT22;9517;51.174;4.160;2022-11-14T11:21:01;20.10;99.90
18777;DHT22;9517;51.174;4.160;2022-11-14T11:23:28;20.00;99.90
18777;DHT22;9517;51.174;4.160;2022-11-14T11:25:59;19.10;99.90
18777;DHT22;9517;51.174;4.160;2022-11-14T11:28:33;19.50;99.90
18777;DHT22;9517;51.174;4.160;2022-11-14T11:31:10;19.30;99.90
18777;DHT22;9517;51.174;4.160;2022-11-14T11:33:41;20.50;99.90
18777;DHT22;9517;51.174;4.160;2022-11-14T11:36:12;20.70;99.90
18777;DHT22;9517;51.174;4.160;2022-11-14T11:38:41;20.50;99.90
18777;DHT22;9517;51.174;4.160;2022-11-14T11:41:17;20.80;99.90
18777;DHT22;9517;51.174;4.160;2022-11-14T11:43:49;21.20;99.90
18777;DHT22;9517;51.174;4.160;2022-11-14T11:46:21;21.90;99.90
18777;DHT22;9517;51.174;4.160;2022-11-14T11:48:56;22.70;99.90
18777;DHT22;9517;51.174;4.160;2022-11-14T11:51:28;23.20;99.90
18777;DHT22;9517;51.174;4.160;2022-11-14T11:53:59;22.70;99.90
18777;DHT22;9517;51.174;4.160;2022-11-14T11:56:30;22.30;99.90
18777;DHT22;9517;51.174;4.160;2022-11-14T11:59:05;21.60;99.90
18777;DHT22;9517;51.174;4.160;2022-11-14T12:01:40;21.80;99.90
18777;DHT22;9517;51.174;4.160;2022-11-14T12:04:07;22.70;99.90
18777;DHT22;9517;51.174;4.160;2022-11-14T12:06:40;23.30;99.90
18777;DHT22;9517;51.174;4.160;2022-11-14T12:09:14;23.20;99.90
18777;DHT22;9517;51.174;4.160;2022-11-14T12:11:47;22.50;99.90
18777;DHT22;9517;51.174;4.160;2022-11-14T12:14:31;22.00;99.90
18777;DHT22;9517;51.174;4.160;2022-11-14T12:17:23;20.80;99.90
18777;DHT22;9517;51.174;4.160;2022-11-14T12:20:18;19.30;99.90
18777;DHT22;9517;51.174;4.160;2022-11-14T12:23:01;19.20;99.90
18777;DHT22;9517;51.174;4.160;2022-11-14T12:25:46;19.70;99.90
18777;DHT22;9517;51.174;4.160;2022-11-14T12:28:23;21.20;99.90
18777;DHT22;9517;51.174;4.160;2022-11-14T12:30:55;19.90;99.90
18777;DHT22;9517;51.174;4.160;2022-11-14T12:33:27;19.50;99.90
18777;DHT22;9517;51.174;4.160;2022-11-14T12:35:57;20.70;99.90
18777;DHT22;9517;51.174;4.160;2022-11-14T12:38:34;21.20;99.90
18777;DHT22;9517;51.174;4.160;2022-11-14T12:41:08;21.80;99.90
18777;DHT22;9517;51.174;4.160;2022-11-14T12:43:37;22.00;99.90
18777;DHT22;9517;51.174;4.160;2022-11-14T12:46:05;22.60;99.90
18777;DHT22;9517;51.174;4.160;2022-11-14T12:48:39;22.40;99.90
18777;DHT22;9517;51.174;4.160;2022-11-14T12:54:42;22.20;99.90
18777;DHT22;9517;51.174;4.160;2022-11-14T12:57:20;22.90;99.90
18777;DHT22;9517;51.174;4.160;2022-11-14T13:00:07;22.60;99.90
18777;DHT22;9517;51.174;4.160;2022-11-14T13:05:49;21.30;99.90
18777;DHT22;9517;51.174;4.160;2022-11-14T13:08:41;20.90;99.90
18777;DHT22;9517;51.174;4.160;2022-11-14T13:11:38;20.00;99.90
18777;DHT22;9517;51.174;4.160;2022-11-14T13:14:24;18.50;99.90
18777;DHT22;9517;51.174;4.160;2022-11-14T13:17:10;18.50;99.90
18777;DHT22;9517;51.174;4.160;2022-11-14T13:20:29;18.90;99.90
18777;DHT22;9517;51.174;4.160;2022-11-14T13:26:39;18.40;99.90
18777;DHT22;9517;51.174;4.160;2022-11-14T13:29:06;18.30;99.90
18777;DHT22;9517;51.174;4.160;2022-11-14T13:31:45;17.80;99.90
18777;DHT22;9517;51.174;4.160;2022-11-14T13:34:34;16.40;99.90
18777;DHT22;9517;51.174;4.160;2022-11-14T13:37:11;15.20;99.90
18777;DHT22;9517;51.174;4.160;2022-11-14T13:39:46;15.00;99.90
18777;DHT22;9517;51.174;4.160;2022-11-14T13:42:27;15.70;99.90
18777;DHT22;9517;51.174;4.160;2022-11-14T13:48:18;15.20;99.90
18777;DHT22;9517;51.174;4.160;2022-11-14T13:50:51;15.00;99.90
18777;DHT22;9517;51.174;4.160;2022-11-14T13:53:20;14.70;99.90
18777;DHT22;9517;51.174;4.160;2022-11-14T13:55:55;13.70;99.90
18777;DHT22;9517;51.174;4.160;2022-11-14T13:58:35;13.50;99.90
18777;DHT22;9517;51.174;4.160;2022-11-14T14:01:13;12.00;99.90
18777;DHT22;9517;51.174;4.160;2022-11-14T14:03:55;11.80;99.90
18777;DHT22;9517;51.174;4.160;2022-11-14T14:06:33;11.70;99.90
18777;DHT22;9517;51.174;4.160;2022-11-14T14:09:23;11.60;99.90
18777;DHT22;9517;51.174;4.160;2022-11-14T14:12:02;11.10;99.90
18777;DHT22;9517;51.174;4.160;2022-11-14T14:14:52;10.60;99.90
18777;DHT22;9517;51.174;4.160;2022-11-14T14:17:28;10.50;99.90
18777;DHT22;9517;51.174;4.160;2022-11-14T14:20:04;9.80;99.90
18777;DHT22;9517;51.174;4.160;2022-11-14T14:22:43;9.40;99.90
18777;DHT22;9517;51.174;4.160;2022-11-14T14:25:18;9.10;99.90
18777;DHT22;9517;51.174;4.160;2022-11-14T14:28:02;9.30;99.90
18777;DHT22;9517;51.174;4.160;2022-11-14T14:30:34;9.20;99.90
18777;DHT22;9517;51.174;4.160;2022-11-14T14:33:02;9.20;99.90
18777;DHT22;9517;51.174;4.160;2022-11-14T14:35:31;9.10;99.90
18777;DHT22;9517;51.174;4.160;2022-11-14T14:38:01;9.00;99.90
18777;DHT22;9517;51.174;4.160;2022-11-14T14:40:31;9.20;99.90
18777;DHT22;9517;51.174;4.160;2022-11-14T14:42:59;9.00;99.90
18777;DHT22;9517;51.174;4.160;2022-11-14T14:45:28;8.60;99.90
18777;DHT22;9517;51.174;4.160;2022-11-14T14:48:01;8.40;99.90
18777;DHT22;9517;51.174;4.160;2022-11-14T14:50:32;8.40;99.90
18777;DHT22;9517;51.174;4.160;2022-11-14T14:53:02;8.50;99.90
18777;DHT22;9517;51.174;4.160;2022-11-14T14:55:31;8.60;99.90
18777;DHT22;9517;51.174;4.160;2022-11-14T14:58:12;8.70;99.90
18777;DHT22;9517;51.174;4.160;2022-11-14T15:00:49;8.80;99.90
18777;DHT22;9517;51.174;4.160;2022-11-14T15:03:19;8.90;99.90
18777;DHT22;9517;51.174;4.160;2022-11-14T15:05:47;9.10;99.90
18777;DHT22;9517;51.174;4.160;2022-11-14T15:08:15;9.10;99.90
18777;DHT22;9517;51.174;4.160;2022-11-14T15:10:42;8.90;99.90
18777;DHT22;9517;51.174;4.160;2022-11-14T15:13:14;8.80;99.90
18777;DHT22;9517;51.174;4.160;2022-11-14T15:15:41;8.70;99.90
18777;DHT22;9517;51.174;4.160;2022-11-14T15:18:24;8.70;99.90
18777;DHT22;9517;51.174;4.160;2022-11-14T15:21:07;8.40;99.90
18777;DHT22;9517;51.174;4.160;2022-11-14T15:23:36;8.30;99.90
18777;DHT22;9517;51.174;4.160;2022-11-14T15:26:13;8.20;99.90
18777;DHT22;9517;51.174;4.160;2022-11-14T15:28:42;8.30;99.90
18777;DHT22;9517;51.174;4.160;2022-11-14T15:31:16;8.20;99.90
18777;DHT22;9517;51.174;4.160;2022-11-14T15:34:00;8.00;99.90
18777;DHT22;9517;51.174;4.160;2022-11-14T15:36:29;7.90;99.90
18777;DHT22;9517;51.174;4.160;2022-11-14T15:39:01;7.90;99.90
18777;DHT22;9517;51.174;4.160;2022-11-14T15:41:29;8.10;99.90
18777;DHT22;9517;51.174;4.160;2022-11-14T15:43:57;7.80;99.90
18777;DHT22;9517;51.174;4.160;2022-11-14T15:46:41;7.80;99.90
18777;DHT22;9517;51.174;4.160;2022-11-14T15:49:31;7.80;99.90
18777;DHT22;9517;51.174;4.160;2022-11-14T15:52:01;7.80;99.90
18777;DHT22;9517;51.174;4.160;2022-11-14T15:54:30;7.80;99.90
18777;DHT22;9517;51.174;4.160;2022-11-14T15:56:59;7.60;99.90
18777;DHT22;9517;51.174;4.160;2022-11-14T15:59:28;7.50;99.90
18777;DHT22;9517;51.174;4.160;2022-11-14T16:01:58;7.30;99.90
18777;DHT22;9517;51.174;4.160;2022-11-14T16:04:30;7.50;99.90
18777;DHT22;9517;51.174;4.160;2022-11-14T16:06:59;7.60;99.90
18777;DHT22;9517;51.174;4.160;2022-11-14T16:09:27;7.70;99.90
18777;DHT22;9517;51.174;4.160;2022-11-14T16:11:56;7.70;99.90
18777;DHT22;9517;51.174;4.160;2022-11-14T16:14:23;7.70;99.90
18777;DHT22;9517;51.174;4.160;2022-11-14T16:16:50;7.50;99.90
18777;DHT22;9517;51.174;4.160;2022-11-14T16:19:17;7.60;99.90
18777;DHT22;9517;51.174;4.160;2022-11-14T16:21:46;7.60;99.90
18777;DHT22;9517;51.174;4.160;2022-11-14T16:24:17;7.60;99.90
18777;DHT22;9517;51.174;4.160;2022-11-14T16:26:44;7.60;99.90
18777;DHT22;9517;51.174;4.160;2022-11-14T16:29:11;7.60;99.90
18777;DHT22;9517;51.174;4.160;2022-11-14T16:31:39;7.70;99.90
18777;DHT22;9517;51.174;4.160;2022-11-14T16:34:08;7.80;99.90
18777;DHT22;9517;51.174;4.160;2022-11-14T16:36:36;7.80;99.90
18777;DHT22;9517;51.174;4.160;2022-11-14T16:39:03;7.60;99.90
18777;DHT22;9517;51.174;4.160;2022-11-14T16:41:37;7.60;99.90
18777;DHT22;9517;51.174;4.160;2022-11-14T16:44:04;7.70;99.90
18777;DHT22;9517;51.174;4.160;2022-11-14T16:46:31;7.90;99.90
18777;DHT22;9517;51.174;4.160;2022-11-14T16:48:58;7.70;99.90
18777;DHT22;9517;51.174;4.160;2022-11-14T16:51:25;8.00;99.90
18777;DHT22;9517;51.174;4.160;2022-11-14T16:53:54;8.10;99.90
18777;DHT22;9517;51.174;4.160;2022-11-14T16:56:21;8.20;99.90
18777;DHT22;9517;51.174;4.160;2022-11-14T16:58:54;8.10;99.90
18777;DHT22;9517;51.174;4.160;2022-11-14T17:01:21;8.20;99.90
18777;DHT22;9517;51.174;4.160;2022-11-14T17:03:51;8.20;99.90
18777;DHT22;9517;51.174;4.160;2022-11-14T17:06:19;8.30;99.90
18777;DHT22;9517;51.174;4.160;2022-11-14T17:08:46;8.10;99.90
18777;DHT22;9517;51.174;4.160;2022-11-14T17:11:13;8.10;99.90
18777;DHT22;9517;51.174;4.160;2022-11-14T17:13:40;8.10;99.90
18777;DHT22;9517;51.174;4.160;2022-11-14T17:16:09;8.00;99.90
18777;DHT22;9517;51.174;4.160;2022-11-14T17:18:36;8.10;99.90
18777;DHT22;9517;51.174;4.160;2022-11-14T17:21:06;8.00;99.90
18777;DHT22;9517;51.174;4.160;2022-11-14T17:23:34;8.10;99.90
18777;DHT22;9517;51.174;4.160;2022-11-14T17:26:01;8.00;99.90
18777;DHT22;9517;51.174;4.160;2022-11-14T17:28:28;8.10;99.90
18777;DHT22;9517;51.174;4.160;2022-11-14T17:30:56;8.20;99.90
18777;DHT22;9517;51.174;4.160;2022-11-14T17:33:24;8.30;99.90
18777;DHT22;9517;51.174;4.160;2022-11-14T17:35:51;8.30;99.90
18777;DHT22;9517;51.174;4.160;2022-11-14T17:38:18;8.30;99.90
18777;DHT22;9517;51.174;4.160;2022-11-14T17:40:45;8.20;99.90
18777;DHT22;9517;51.174;4.160;2022-11-14T17:43:15;8.20;99.90
18777;DHT22;9517;51.174;4.160;2022-11-14T17:45:42;8.20;99.90
18777;DHT22;9517;51.174;4.160;2022-11-14T17:48:18;8.10;99.90
18777;DHT22;9517;51.174;4.160;2022-11-14T17:50:47;8.20;99.90
18777;DHT22;9517;51.174;4.160;2022-11-14T17:53:14;8.20;99.90
18777;DHT22;9517;51.174;4.160;2022-11-14T17:55:41;8.20;99.90
18777;DHT22;9517;51.174;4.160;2022-11-14T17:58:09;8.20;99.90
18777;DHT22;9517;51.174;4.160;2022-11-14T18:00:36;8.20;99.90
18777;DHT22;9517;51.174;4.160;2022-11-14T18:03:03;8.20;99.90
18777;DHT22;9517;51.174;4.160;2022-11-14T18:05:30;8.10;99.90
18777;DHT22;9517;51.174;4.160;2022-11-14T18:08:01;8.10;99.90
18777;DHT22;9517;51.174;4.160;2022-11-14T18:10:28;7.90;99.90
18777;DHT22;9517;51.174;4.160;2022-11-14T18:12:55;7.90;99.90
18777;DHT22;9517;51.174;4.160;2022-11-14T18:15:22;7.90;99.90
18777;DHT22;9517;51.174;4.160;2022-11-14T18:17:49;8.00;99.90
18777;DHT22;9517;51.174;4.160;2022-11-14T18:20:17;8.00;99.90
18777;DHT22;9517;51.174;4.160;2022-11-14T18:22:44;8.00;99.90
18777;DHT22;9517;51.174;4.160;2022-11-14T18:25:12;8.10;99.90
18777;DHT22;9517;51.174;4.160;2022-11-14T18:27:39;7.90;99.90
18777;DHT22;9517;51.174;4.160;2022-11-14T18:30:08;7.90;99.90
18777;DHT22;9517;51.174;4.160;2022-11-14T18:32:36;7.80;99.90
18777;DHT22;9517;51.174;4.160;2022-11-14T18:35:03;7.80;99.90
18777;DHT22;9517;51.174;4.160;2022-11-14T18:37:31;7.90;99.90
18777;DHT22;9517;51.174;4.160;2022-11-14T18:39:59;8.00;99.90
18777;DHT22;9517;51.174;4.160;2022-11-14T18:42:29;8.00;99.90
18777;DHT22;9517;51.174;4.160;2022-11-14T18:44:56;7.90;99.90
18777;DHT22;9517;51.174;4.160;2022-11-14T18:47:23;7.80;99.90
18777;DHT22;9517;51.174;4.160;2022-11-14T18:49:50;7.80;99.90
18777;DHT22;9517;51.174;4.160;2022-11-14T18:52:18;7.70;99.90
18777;DHT22;9517;51.174;4.160;2022-11-14T18:54:45;7.90;99.90
18777;DHT22;9517;51.174;4.160;2022-11-14T18:57:12;7.70;99.90
18777;DHT22;9517;51.174;4.160;2022-11-14T18:59:40;7.90;99.90
18777;DHT22;9517;51.174;4.160;2022-11-14T19:02:08;7.90;99.90
18777;DHT22;9517;51.174;4.160;2022-11-14T19:04:35;8.10;99.90
18777;DHT22;9517;51.174;4.160;2022-11-14T19:07:04;8.00;99.90
18777;DHT22;9517;51.174;4.160;2022-11-14T19:09:31;8.10;99.90
18777;DHT22;9517;51.174;4.160;2022-11-14T19:12:00;8.20;99.90
18777;DHT22;9517;51.174;4.160;2022-11-14T19:14:48;8.10;99.90
18777;DHT22;9517;51.174;4.160;2022-11-14T19:17:16;8.10;99.90
18777;DHT22;9517;51.174;4.160;2022-11-14T19:19:46;8.20;99.90
18777;DHT22;9517;51.174;4.160;2022-11-14T19:22:14;8.20;99.90
18777;DHT22;9517;51.174;4.160;2022-11-14T19:24:41;8.30;99.90
18777;DHT22;9517;51.174;4.160;2022-11-14T19:27:11;8.20;99.90
18777;DHT22;9517;51.174;4.160;2022-11-14T19:29:38;8.20;99.90
18777;DHT22;9517;51.174;4.160;2022-11-14T19:32:10;8.20;99.90
18777;DHT22;9517;51.174;4.160;2022-11-14T19:34:47;8.30;99.90
18777;DHT22;9517;51.174;4.160;2022-11-14T19:37:20;8.20;99.90
18777;DHT22;9517;51.174;4.160;2022-11-14T19:39:49;8.10;99.90
18777;DHT22;9517;51.174;4.160;2022-11-14T19:42:20;8.10;99.90
18777;DHT22;9517;51.174;4.160;2022-11-14T19:44:47;8.10;99.90
18777;DHT22;9517;51.174;4.160;2022-11-14T19:47:16;8.20;99.90
18777;DHT22;9517;51.174;4.160;2022-11-14T19:49:43;8.20;99.90
18777;DHT22;9517;51.174;4.160;2022-11-14T19:52:11;8.20;99.90
18777;DHT22;9517;51.174;4.160;2022-11-14T19:54:38;8.30;99.90
18777;DHT22;9517;51.174;4.160;2022-11-14T19:57:05;8.30;99.90
18777;DHT22;9517;51.174;4.160;2022-11-14T19:59:32;8.30;99.90
18777;DHT22;9517;51.174;4.160;2022-11-14T20:01:59;8.30;99.90
18777;DHT22;9517;51.174;4.160;2022-11-14T20:04:28;8.30;99.90
18777;DHT22;9517;51.174;4.160;2022-11-14T20:06:55;8.20;99.90
18777;DHT22;9517;51.174;4.160;2022-11-14T20:09:22;8.30;99.90
18777;DHT22;9517;51.174;4.160;2022-11-14T20:11:49;8.30;99.90
18777;DHT22;9517;51.174;4.160;2022-11-14T20:14:17;8.40;99.90
18777;DHT22;9517;51.174;4.160;2022-11-14T20:16:44;8.60;99.90
18777;DHT22;9517;51.174;4.160;2022-11-14T20:19:11;8.70;99.90
18777;DHT22;9517;51.174;4.160;2022-11-14T20:21:40;8.60;99.90
18777;DHT22;9517;51.174;4.160;2022-11-14T20:24:09;8.70;99.90
18777;DHT22;9517;51.174;4.160;2022-11-14T20:26:37;8.60;99.90
18777;DHT22;9517;51.174;4.160;2022-11-14T20:29:04;8.70;99.90
18777;DHT22;9517;51.174;4.160;2022-11-14T20:31:31;8.70;99.90
18777;DHT22;9517;51.174;4.160;2022-11-14T20:33:59;8.60;99.90
18777;DHT22;9517;51.174;4.160;2022-11-14T20:36:56;8.50;99.90
18777;DHT22;9517;51.174;4.160;2022-11-14T20:39:25;8.60;99.90
18777;DHT22;9517;51.174;4.160;2022-11-14T20:41:55;8.70;99.90
18777;DHT22;9517;51.174;4.160;2022-11-14T20:44:23;8.80;99.90
18777;DHT22;9517;51.174;4.160;2022-11-14T20:46:50;8.70;99.90
18777;DHT22;9517;51.174;4.160;2022-11-14T20:49:17;8.70;99.90
18777;DHT22;9517;51.174;4.160;2022-11-14T20:51:44;8.80;99.90
18777;DHT22;9517;51.174;4.160;2022-11-14T20:54:11;8.80;99.90
18777;DHT22;9517;51.174;4.160;2022-11-14T20:56:43;8.90;99.90
18777;DHT22;9517;51.174;4.160;2022-11-14T20:59:13;8.90;99.90
18777;DHT22;9517;51.174;4.160;2022-11-14T21:01:40;9.00;99.90